Time;durP1;ratioP1;P1;durP2;ratioP2;P2;SDS_P1;SDS_P2;PMS_P1;PMS_P2;Temp;Humidity;BMP_temperature;BMP_pressure;BME280_temperature;BME280_humidity;BME280_pressure;Samples;Min_cycle;Max_cycle;Signal;HPM_P1;HPM_P2
2022/06/14 00:02:30;;;;;;;1.23;1.00;;;21.10;46.90;;;;;;4983263;28;20227;-56
2022/06/14 00:04:56;;;;;;;1.30;1.20;;;21.10;46.90;;;;;;4982024;28;20824;-56
2022/06/14 00:07:21;;;;;;;1.07;1.07;;;21.10;46.80;;;;;;4981811;28;20229;-56
2022/06/14 00:09:47;;;;;;;1.07;0.97;;;21.10;46.80;;;;;;4982626;28;20220;-56
2022/06/14 00:12:13;;;;;;;1.10;1.00;;;21.10;46.80;;;;;;4981400;28;20228;-56
2022/06/14 00:14:39;;;;;;;1.20;1.10;;;21.10;46.80;;;;;;4980664;28;20671;-57
2022/06/14 00:17:05;;;;;;;1.20;1.10;;;21.10;46.80;;;;;;4980154;28;20573;-56
2022/06/14 00:19:30;;;;;;;1.10;1.00;;;21.10;46.80;;;;;;4995288;28;20530;-56
2022/06/14 00:22:01;;;;;;;1.27;1.17;;;21.10;46.80;;;;;;4983545;28;20225;-57
2022/06/14 00:24:28;;;;;;;1.10;1.00;;;21.10;46.80;;;;;;4981988;28;20224;-57
2022/06/14 00:26:53;;;;;;;1.20;1.10;;;21.10;46.80;;;;;;4987626;28;20462;-57
2022/06/14 00:29:19;;;;;;;1.00;1.00;;;21.10;46.80;;;;;;4981784;28;20451;-57
2022/06/14 00:31:45;;;;;;;1.40;1.30;;;21.10;46.80;;;;;;4979401;28;20266;-57
2022/06/14 00:34:10;;;;;;;1.17;1.07;;;21.10;46.80;;;;;;4980272;28;20292;-56
2022/06/14 00:36:36;;;;;;;1.20;0.93;;;21.10;46.80;;;;;;4982276;28;20454;-58
2022/06/14 00:39:05;;;;;;;0.97;0.97;;;21.10;46.80;;;;;;4977402;28;20308;-58
2022/06/14 00:41:37;;;;;;;1.10;1.00;;;21.10;46.80;;;;;;4981694;28;20248;-57
2022/06/14 00:44:06;;;;;;;1.30;1.20;;;21.10;46.80;;;;;;4978106;28;20944;-57
2022/06/14 00:46:52;;;;;;;1.43;1.30;;;21.10;46.70;;;;;;4977812;28;20856;-57
2022/06/14 00:49:27;;;;;;;1.20;1.10;;;21.10;46.70;;;;;;4978414;28;21094;-57
2022/06/14 00:52:02;;;;;;;1.30;1.10;;;21.10;46.70;;;;;;4981398;28;20503;-56
2022/06/14 00:54:37;;;;;;;1.37;1.07;;;21.10;46.70;;;;;;4983732;28;20440;-57
2022/06/14 00:57:11;;;;;;;1.20;1.10;;;21.10;47.50;;;;;;4986716;28;20840;-57
2022/06/14 01:00:00;;;;;;;3.27;1.20;;;21.10;46.70;;;;;;4984201;28;20450;-57
2022/06/14 01:02:35;;;;;;;1.20;1.10;;;21.10;46.70;;;;;;4981560;28;20457;-56
2022/06/14 01:05:06;;;;;;;1.20;1.00;;;21.10;46.70;;;;;;4996298;28;20863;-57
2022/06/14 01:07:45;;;;;;;1.30;1.20;;;21.10;46.70;;;;;;4982011;28;20978;-57
2022/06/14 01:10:19;;;;;;;1.23;1.13;;;21.10;46.70;;;;;;4984063;28;20514;-57
2022/06/14 01:12:48;;;;;;;1.20;1.10;;;21.10;46.70;;;;;;4981014;28;20445;-57
2022/06/14 01:15:22;;;;;;;1.40;1.30;;;21.10;46.70;;;;;;4983750;28;20521;-57
2022/06/14 01:18:03;;;;;;;1.23;1.13;;;21.10;46.70;;;;;;4981183;28;20471;-57
2022/06/14 01:20:29;;;;;;;1.40;1.30;;;21.10;46.70;;;;;;4976355;28;20506;-58
2022/06/14 01:22:55;;;;;;;1.37;1.27;;;21.10;46.70;;;;;;4980278;28;20506;-57
2022/06/14 01:25:22;;;;;;;1.40;1.10;;;21.10;46.80;;;;;;4979920;28;20232;-57
2022/06/14 01:27:48;;;;;;;1.10;1.00;;;21.10;46.70;;;;;;4977131;28;20253;-57
2022/06/14 01:30:20;;;;;;;1.10;1.10;;;21.10;46.70;;;;;;4982173;28;20569;-57
2022/06/14 01:32:58;;;;;;;1.40;1.30;;;21.10;46.70;;;;;;4977570;28;20242;-57
2022/06/14 01:35:32;;;;;;;1.30;1.13;;;21.00;46.60;;;;;;4980057;28;20475;-58
2022/06/14 01:38:01;;;;;;;1.10;1.00;;;21.10;46.70;;;;;;4979493;28;20839;-58
2022/06/14 01:41:00;;;;;;;1.10;1.00;;;21.00;46.60;;;;;;4980991;28;20458;-58
2022/06/14 01:43:47;;;;;;;1.20;1.10;;;21.00;46.60;;;;;;4980827;28;20446;-57
2022/06/14 01:46:23;;;;;;;1.10;1.00;;;21.10;46.70;;;;;;4977779;28;20451;-57
2022/06/14 01:51:50;;;;;;;1.53;1.03;;;21.10;46.70;;;;;;4980602;28;20782;-57
2022/06/14 01:51:52;;;;;;;1.20;1.10;;;21.00;46.60;;;;;;4979167;28;20450;-57
2022/06/14 01:54:42;;;;;;;1.20;1.10;;;21.00;46.60;;;;;;4982374;28;20469;-57
2022/06/14 01:57:17;;;;;;;1.40;1.30;;;21.00;46.60;;;;;;4980672;28;20534;-56
2022/06/14 01:59:51;;;;;;;1.40;1.30;;;21.00;46.60;;;;;;4979943;28;20458;-57
2022/06/14 02:02:32;;;;;;;1.17;1.07;;;21.00;46.60;;;;;;4981643;28;20820;-57
2022/06/14 02:05:30;;;;;;;1.00;1.00;;;21.00;46.60;;;;;;4979859;28;20454;-58
2022/06/14 02:08:08;;;;;;;1.30;1.20;;;21.00;46.70;;;;;;4970228;28;20450;-57
2022/06/14 02:11:01;;;;;;;1.17;1.07;;;21.00;46.70;;;;;;4976955;28;20463;-57
2022/06/14 02:13:37;;;;;;;1.50;1.20;;;21.00;46.60;;;;;;4982300;28;20533;-58
2022/06/14 02:16:13;;;;;;;1.00;0.90;;;21.00;46.70;;;;;;4981739;28;20449;-57
2022/06/14 02:18:43;;;;;;;1.30;1.20;;;21.00;46.60;;;;;;4979307;28;20447;-56
2022/06/14 02:21:17;;;;;;;1.30;1.20;;;21.00;46.70;;;;;;4981570;28;20797;-57
2022/06/14 02:23:48;;;;;;;1.13;1.03;;;21.00;46.60;;;;;;4982833;28;20538;-57
2022/06/14 02:26:22;;;;;;;1.10;1.03;;;21.00;46.60;;;;;;4991545;28;20521;-57
2022/06/14 02:28:52;;;;;;;1.30;1.20;;;21.00;46.70;;;;;;4981995;28;20793;-57
2022/06/14 02:31:24;;;;;;;1.20;1.10;;;21.00;46.60;;;;;;4977694;28;20513;-57
2022/06/14 02:34:08;;;;;;;1.30;1.20;;;21.00;46.60;;;;;;4976819;28;20974;-58
2022/06/14 02:36:40;;;;;;;1.27;1.17;;;21.00;46.60;;;;;;4978932;28;20454;-57
2022/06/14 02:39:14;;;;;;;1.40;1.30;;;21.00;46.60;;;;;;4979270;28;20494;-57
2022/06/14 02:42:21;;;;;;;1.20;1.10;;;21.00;46.60;;;;;;4980488;28;20450;-57
2022/06/14 02:44:55;;;;;;;1.27;1.13;;;21.00;46.50;;;;;;4955394;28;20458;-57
2022/06/14 02:47:29;;;;;;;1.40;1.30;;;21.00;46.60;;;;;;4975604;28;20537;-57
2022/06/14 02:50:06;;;;;;;1.20;1.10;;;21.00;46.60;;;;;;4980301;28;20437;-57
2022/06/14 02:52:45;;;;;;;1.40;1.30;;;21.00;46.60;;;;;;4978102;28;20491;-57
2022/06/14 02:55:17;;;;;;;1.20;1.10;;;21.00;46.60;;;;;;4980715;28;20661;-57
2022/06/14 02:57:54;;;;;;;1.10;1.00;;;21.00;46.60;;;;;;4981968;28;20466;-57
2022/06/14 03:00:24;;;;;;;1.17;1.07;;;21.00;46.60;;;;;;4976723;28;20587;-56
2022/06/14 03:02:57;;;;;;;1.30;1.20;;;21.00;46.60;;;;;;4981898;28;20556;-57
2022/06/14 03:05:39;;;;;;;1.30;1.20;;;21.00;46.60;;;;;;4980184;28;20461;-57
2022/06/14 03:08:31;;;;;;;1.33;1.23;;;21.00;46.60;;;;;;4982182;28;20459;-59
2022/06/14 03:11:02;;;;;;;1.30;1.20;;;21.00;46.60;;;;;;4979212;28;20451;-57
2022/06/14 03:13:37;;;;;;;1.30;1.20;;;21.00;46.50;;;;;;4981345;28;20993;-59
2022/06/14 03:16:19;;;;;;;1.57;1.23;;;21.00;46.60;;;;;;4980935;28;20519;-55
2022/06/14 03:18:57;;;;;;;0.97;0.97;;;21.00;46.60;;;;;;4982965;28;20469;-55
2022/06/14 03:21:37;;;;;;;1.00;1.00;;;21.00;46.60;;;;;;4985670;28;20466;-55
2022/06/14 03:24:09;;;;;;;2.37;1.13;;;21.00;46.60;;;;;;4983515;28;20493;-55
2022/06/14 03:26:38;;;;;;;1.20;1.10;;;21.00;46.50;;;;;;4987012;28;20564;-56
2022/06/14 03:29:12;;;;;;;0.97;0.97;;;21.00;46.50;;;;;;4983225;28;20541;-55
2022/06/14 03:31:53;;;;;;;1.37;1.27;;;21.00;46.50;;;;;;4978114;28;20459;-55
2022/06/14 03:34:29;;;;;;;1.27;1.17;;;21.00;46.50;;;;;;4984283;28;20448;-56
2022/06/14 03:36:56;;;;;;;1.13;1.03;;;21.00;46.50;;;;;;4986729;28;20457;-56
2022/06/14 03:39:27;;;;;;;1.13;1.03;;;21.00;46.50;;;;;;4984964;28;20450;-56
2022/06/14 03:41:54;;;;;;;1.23;1.13;;;21.00;46.40;;;;;;4989614;28;20446;-55
2022/06/14 03:44:22;;;;;;;1.37;1.27;;;21.00;46.50;;;;;;4982658;28;20462;-56
2022/06/14 03:47:19;;;;;;;1.23;1.13;;;21.00;46.50;;;;;;4983630;28;20461;-55
2022/06/14 03:50:02;;;;;;;1.30;1.20;;;21.00;46.40;;;;;;4984780;28;20455;-55
2022/06/14 03:52:51;;;;;;;1.20;1.10;;;21.00;46.40;;;;;;4984957;28;20966;-56
2022/06/14 03:55:41;;;;;;;1.30;1.20;;;21.00;46.40;;;;;;4983755;28;20498;-55
2022/06/14 03:58:24;;;;;;;1.17;1.07;;;21.00;46.40;;;;;;4982860;28;20946;-56
2022/06/14 04:00:55;;;;;;;1.30;1.20;;;21.00;46.40;;;;;;4983204;28;20497;-56
2022/06/14 04:03:52;;;;;;;1.20;1.10;;;21.00;46.40;;;;;;4987798;28;20455;-55
2022/06/14 04:06:44;;;;;;;0.90;0.90;;;21.00;46.30;;;;;;4983122;28;20474;-56
2022/06/14 04:09:24;;;;;;;1.40;1.27;;;21.00;46.30;;;;;;4982856;28;20470;-56
2022/06/14 04:12:05;;;;;;;1.20;1.10;;;21.00;46.30;;;;;;4984897;28;20458;-56
2022/06/14 04:14:50;;;;;;;1.57;1.47;;;20.90;46.30;;;;;;4984056;28;20493;-56
2022/06/14 04:17:26;;;;;;;1.30;1.20;;;21.00;46.30;;;;;;4983094;28;20462;-56
2022/06/14 04:20:13;;;;;;;1.37;1.27;;;21.00;47.00;;;;;;4977152;28;20970;-56
2022/06/14 04:22:44;;;;;;;1.20;1.10;;;21.10;46.20;;;;;;4982456;28;20477;-55
2022/06/14 04:25:19;;;;;;;1.30;1.20;;;21.10;46.10;;;;;;4983649;28;20450;-56
2022/06/14 04:27:59;;;;;;;1.30;1.20;;;21.10;46.10;;;;;;4978946;28;20568;-55
2022/06/14 04:31:00;;;;;;;1.60;1.50;;;21.10;46.00;;;;;;4983012;28;20428;-56
2022/06/14 04:33:36;;;;;;;1.37;1.27;;;21.10;45.80;;;;;;4941975;28;20564;-55
2022/06/14 04:36:22;;;;;;;1.30;1.20;;;21.10;45.80;;;;;;4981293;28;20445;-55
2022/06/14 04:38:55;;;;;;;1.33;1.23;;;21.10;45.80;;;;;;4982627;28;20441;-56
2022/06/14 04:41:30;;;;;;;1.40;1.30;;;21.10;45.80;;;;;;4981459;28;20432;-56
2022/06/14 04:44:02;;;;;;;1.67;1.57;;;21.10;45.70;;;;;;4983182;28;20983;-56
2022/06/14 04:46:42;;;;;;;1.40;1.30;;;21.20;45.70;;;;;;4978136;28;20960;-55
2022/06/14 04:49:44;;;;;;;1.30;1.20;;;21.10;45.70;;;;;;4997595;28;20469;-56
2022/06/14 04:52:28;;;;;;;1.30;1.20;;;21.20;45.70;;;;;;4978790;28;20775;-56
2022/06/14 04:55:00;;;;;;;1.20;1.10;;;21.20;45.70;;;;;;4979596;28;20488;-55
2022/06/14 04:57:43;;;;;;;1.23;1.13;;;21.10;45.70;;;;;;4980666;28;20490;-56
2022/06/14 05:00:12;;;;;;;1.40;1.30;;;21.20;45.70;;;;;;4982775;28;20462;-55
2022/06/14 05:02:51;;;;;;;1.30;1.20;;;21.20;45.70;;;;;;4986397;28;20473;-56
2022/06/14 05:05:23;;;;;;;1.37;1.27;;;21.10;45.70;;;;;;4980742;28;20524;-56
2022/06/14 05:07:55;;;;;;;1.40;1.30;;;21.20;45.70;;;;;;4986189;28;21099;-56
2022/06/14 05:10:29;;;;;;;1.73;1.47;;;21.10;45.70;;;;;;4982780;28;20441;-57
2022/06/14 05:13:15;;;;;;;2.40;1.37;;;21.10;45.70;;;;;;4980329;28;20461;-57
2022/06/14 05:15:53;;;;;;;1.07;1.00;;;21.20;45.70;;;;;;4983070;28;21009;-56
2022/06/14 05:18:29;;;;;;;1.27;1.17;;;21.20;45.70;;;;;;4984064;28;20469;-57
2022/06/14 05:21:18;;;;;;;1.47;1.30;;;21.10;45.70;;;;;;4984582;28;20464;-58
2022/06/14 05:23:48;;;;;;;1.30;1.20;;;21.20;45.70;;;;;;4981856;28;20815;-57
2022/06/14 05:26:22;;;;;;;1.40;1.30;;;21.10;46.40;;;;;;4979222;28;20545;-57
2022/06/14 05:29:18;;;;;;;2.13;1.30;;;21.20;45.70;;;;;;4979547;28;20475;-57
2022/06/14 05:31:53;;;;;;;1.67;1.40;;;21.10;45.60;;;;;;4979811;28;20443;-57
2022/06/14 05:34:40;;;;;;;1.20;1.10;;;21.10;45.70;;;;;;4980217;28;20556;-58
2022/06/14 05:37:30;;;;;;;1.33;1.20;;;21.20;45.70;;;;;;4981332;28;20450;-56
2022/06/14 05:39:55;;;;;;;1.40;1.30;;;21.20;45.70;;;;;;4979610;28;20455;-57
2022/06/14 05:42:25;;;;;;;1.40;1.30;;;21.20;45.70;;;;;;4983491;28;20979;-57
2022/06/14 05:44:55;;;;;;;1.40;1.30;;;21.20;45.70;;;;;;4980651;28;20224;-57
2022/06/14 05:47:37;;;;;;;1.50;1.40;;;21.20;45.70;;;;;;4978583;28;20829;-56
2022/06/14 05:50:08;;;;;;;1.50;1.40;;;21.20;45.70;;;;;;4979733;28;20455;-56
2022/06/14 05:52:41;;;;;;;1.30;1.20;;;21.10;45.70;;;;;;4981852;28;20462;-57
2022/06/14 05:55:13;;;;;;;1.40;1.30;;;21.10;45.70;;;;;;4981831;28;20455;-56
2022/06/14 05:57:55;;;;;;;1.57;1.47;;;21.20;45.70;;;;;;4979510;28;20494;-57
2022/06/14 06:00:56;;;;;;;1.30;1.20;;;21.20;45.70;;;;;;4978843;28;20818;-57
2022/06/14 06:03:45;;;;;;;1.33;1.23;;;21.10;45.70;;;;;;4979567;28;20450;-57
2022/06/14 06:06:18;;;;;;;1.57;1.40;;;21.10;45.70;;;;;;4979833;28;20462;-57
2022/06/14 06:08:56;;;;;;;1.40;1.30;;;21.20;45.70;;;;;;4993496;28;20462;-57
2022/06/14 06:11:28;;;;;;;1.27;1.17;;;21.10;45.70;;;;;;4978748;28;20463;-56
2022/06/14 06:14:12;;;;;;;1.40;1.30;;;21.20;45.70;;;;;;4978567;28;20443;-57
2022/06/14 06:19:26;;;;;;;1.40;1.30;;;21.10;46.40;;;;;;4982510;28;20446;-57
2022/06/14 06:22:02;;;;;;;2.17;1.57;;;21.20;45.70;;;;;;4983149;28;22071;-56
2022/06/14 06:24:46;;;;;;;1.67;1.50;;;21.20;45.70;;;;;;4980464;28;20477;-57
2022/06/14 06:27:13;;;;;;;1.50;1.40;;;21.20;45.70;;;;;;4980241;28;20479;-56
2022/06/14 06:30:03;;;;;;;1.77;1.67;;;21.20;45.70;;;;;;4982130;28;20455;-56
2022/06/14 06:32:31;;;;;;;1.50;1.40;;;21.20;45.70;;;;;;4983908;28;20487;-57
2022/06/14 06:35:00;;;;;;;1.57;1.47;;;21.20;45.70;;;;;;4985777;28;20495;-57
2022/06/14 06:37:35;;;;;;;1.73;1.63;;;21.20;45.70;;;;;;4981873;28;20557;-57
2022/06/14 06:40:18;;;;;;;1.50;1.40;;;21.20;45.70;;;;;;4980674;28;20457;-56
2022/06/14 06:42:55;;;;;;;1.40;1.30;;;21.20;45.70;;;;;;4981157;28;20466;-56
2022/06/14 06:45:33;;;;;;;1.40;1.30;;;21.20;45.70;;;;;;4980176;28;20508;-56
2022/06/14 06:48:24;;;;;;;1.53;1.43;;;21.20;45.70;;;;;;4983936;28;20459;-56
2022/06/14 06:50:58;;;;;;;1.50;1.40;;;21.20;45.70;;;;;;4983918;28;20455;-56
2022/06/14 06:53:30;;;;;;;1.30;1.20;;;21.20;45.70;;;;;;4985224;28;20450;-56
2022/06/14 06:56:11;;;;;;;1.40;1.30;;;21.20;45.70;;;;;;4982358;28;20433;-57
2022/06/14 06:58:43;;;;;;;1.47;1.37;;;21.20;45.80;;;;;;4985256;28;20461;-59
2022/06/14 07:01:16;;;;;;;1.50;1.40;;;21.20;45.70;;;;;;4983688;28;20458;-59
2022/06/14 07:03:49;;;;;;;1.50;1.40;;;21.20;45.70;;;;;;4985528;28;20546;-59
2022/06/14 07:06:26;;;;;;;1.40;1.30;;;21.20;45.70;;;;;;4983271;28;20459;-59
2022/06/14 07:08:56;;;;;;;1.30;1.20;;;21.20;45.70;;;;;;4983304;28;20447;-59
2022/06/14 07:11:26;;;;;;;1.30;1.20;;;21.20;45.70;;;;;;4982691;28;20462;-59
2022/06/14 07:14:00;;;;;;;1.70;1.60;;;21.20;45.70;;;;;;4984866;28;20458;-59
2022/06/14 07:16:33;;;;;;;1.40;1.30;;;21.20;45.70;;;;;;4984126;28;20473;-59
2022/06/14 07:19:18;;;;;;;1.60;1.50;;;21.20;45.70;;;;;;4982532;28;20486;-59
2022/06/14 07:22:01;;;;;;;1.30;1.20;;;21.20;45.70;;;;;;4981055;28;20546;-59
2022/06/14 07:24:34;;;;;;;1.40;1.30;;;21.20;45.70;;;;;;4981610;28;20463;-59
2022/06/14 07:27:05;;;;;;;1.60;1.50;;;21.20;45.70;;;;;;4983476;28;20931;-59
2022/06/14 07:29:50;;;;;;;1.77;1.40;;;21.20;45.70;;;;;;4980593;28;20421;-59
2022/06/14 07:32:25;;;;;;;1.50;1.40;;;21.20;45.70;;;;;;4982878;28;20792;-59
2022/06/14 07:34:51;;;;;;;2.00;1.50;;;21.20;46.50;;;;;;4980708;28;20516;-59
2022/06/14 07:37:23;;;;;;;1.60;1.50;;;21.20;45.70;;;;;;4981125;28;20517;-59
2022/06/14 07:39:58;;;;;;;1.93;1.47;;;21.20;45.70;;;;;;4983214;28;20450;-59
2022/06/14 07:42:39;;;;;;;2.70;1.60;;;21.20;45.70;;;;;;4987895;28;20468;-59
2022/06/14 07:45:20;;;;;;;1.60;1.50;;;21.20;45.70;;;;;;4984629;28;20463;-59
2022/06/14 07:47:53;;;;;;;2.07;1.97;;;21.20;45.70;;;;;;4987536;28;21053;-59
2022/06/14 07:50:29;;;;;;;1.50;1.40;;;21.20;45.70;;;;;;4984658;28;20509;-59
2022/06/14 07:53:00;;;;;;;1.83;1.53;;;21.20;46.50;;;;;;4981572;28;20990;-59
2022/06/14 07:55:34;;;;;;;1.97;1.43;;;21.20;45.70;;;;;;4980636;28;20959;-59
2022/06/14 07:58:05;;;;;;;1.63;1.50;;;21.20;45.70;;;;;;5000544;28;20521;-59
2022/06/14 08:03:54;;;;;;;1.50;1.40;;;21.20;45.70;;;;;;4985834;28;20509;-59
2022/06/14 08:06:28;;;;;;;1.30;1.20;;;21.20;45.70;;;;;;4980706;28;20539;-59
2022/06/14 08:09:04;;;;;;;1.80;1.70;;;21.10;45.70;;;;;;4984209;28;20454;-59
2022/06/14 08:11:37;;;;;;;1.87;1.40;;;21.10;45.70;;;;;;4984745;28;20494;-59
2022/06/14 08:14:14;;;;;;;1.30;1.20;;;21.20;45.70;;;;;;4983084;28;20458;-60
2022/06/14 08:16:41;;;;;;;1.87;1.57;;;21.10;45.70;;;;;;4982247;28;20959;-59
2022/06/14 08:19:13;;;;;;;1.60;1.50;;;21.20;45.70;;;;;;4982267;28;20549;-59
2022/06/14 08:21:49;;;;;;;1.40;1.30;;;21.20;46.50;;;;;;4980868;28;20492;-59
2022/06/14 08:24:19;;;;;;;1.60;1.50;;;21.20;45.70;;;;;;4983397;28;20440;-59
2022/06/14 08:27:01;;;;;;;1.73;1.63;;;21.20;45.70;;;;;;4979613;28;20507;-59
2022/06/14 08:29:45;;;;;;;1.60;1.50;;;21.20;45.70;;;;;;4980266;28;20462;-59
2022/06/14 08:32:39;;;;;;;1.50;1.40;;;21.10;45.70;;;;;;4985004;28;20513;-59
2022/06/14 08:35:17;;;;;;;1.60;1.50;;;21.10;45.70;;;;;;4981146;28;20474;-59
2022/06/14 08:38:05;;;;;;;4.90;1.60;;;21.10;45.70;;;;;;4981634;28;20455;-59
2022/06/14 08:40:46;;;;;;;1.50;1.40;;;21.10;45.70;;;;;;4979856;28;20801;-59
2022/06/14 08:43:19;;;;;;;1.60;1.50;;;21.10;45.70;;;;;;4981946;28;20466;-59
2022/06/14 08:46:02;;;;;;;1.60;1.50;;;21.20;45.70;;;;;;4981294;28;20530;-59
2022/06/14 08:48:37;;;;;;;1.43;1.30;;;21.20;45.70;;;;;;4979012;28;20458;-60
2022/06/14 08:51:09;;;;;;;1.60;1.50;;;21.10;45.70;;;;;;4980193;28;20461;-59
2022/06/14 08:54:16;;;;;;;1.60;1.50;;;21.10;45.70;;;;;;4980336;28;20537;-59
2022/06/14 08:56:44;;;;;;;1.60;1.50;;;21.10;45.70;;;;;;4961446;28;20886;-59
2022/06/14 08:59:28;;;;;;;1.60;1.50;;;21.10;45.70;;;;;;4972207;28;20458;-59
2022/06/14 09:02:09;;;;;;;1.67;1.57;;;21.10;45.70;;;;;;4986567;28;20442;-59
2022/06/14 09:04:48;;;;;;;1.93;1.83;;;21.20;45.80;;;;;;4982523;28;20460;-59
2022/06/14 09:07:44;;;;;;;1.63;1.53;;;21.10;45.70;;;;;;4982538;28;20546;-59
2022/06/14 09:10:25;;;;;;;1.60;1.50;;;21.10;45.70;;;;;;4982624;28;20794;-59
2022/06/14 09:13:06;;;;;;;1.90;1.80;;;21.20;45.70;;;;;;4996515;28;20849;-59
2022/06/14 09:15:52;;;;;;;1.70;1.60;;;21.10;45.70;;;;;;4980684;28;20466;-59
2022/06/14 09:18:54;;;;;;;1.80;1.70;;;21.10;45.70;;;;;;4981314;28;20513;-59
2022/06/14 09:21:28;;;;;;;1.70;1.60;;;21.10;45.70;;;;;;4978909;28;20458;-59
2022/06/14 09:23:54;;;;;;;2.03;1.93;;;21.10;45.70;;;;;;4984285;28;20842;-60
2022/06/14 09:26:38;;;;;;;1.93;1.83;;;21.10;45.70;;;;;;4980348;28;20510;-59
2022/06/14 09:29:36;;;;;;;1.60;1.50;;;21.10;45.80;;;;;;4984688;28;20670;-59
2022/06/14 09:32:29;;;;;;;1.87;1.77;;;21.10;45.70;;;;;;4982564;28;20975;-59
2022/06/14 09:35:31;;;;;;;1.90;1.80;;;21.10;45.80;;;;;;4982739;28;20860;-60
2022/06/14 09:38:36;;;;;;;1.90;1.80;;;21.10;45.70;;;;;;4980679;28;20456;-59
2022/06/14 09:41:37;;;;;;;1.80;1.70;;;21.10;45.80;;;;;;4979449;28;20561;-59
2022/06/14 09:44:05;;;;;;;1.97;1.87;;;21.10;45.90;;;;;;4980612;28;20454;-60
2022/06/14 09:46:58;;;;;;;2.63;2.43;;;21.10;45.80;;;;;;4981177;28;20816;-60
2022/06/14 09:49:53;;;;;;;2.00;1.80;;;21.10;45.90;;;;;;4997392;28;20454;-59
2022/06/14 09:52:24;;;;;;;1.80;1.70;;;21.10;45.80;;;;;;4981268;28;20448;-59
2022/06/14 09:55:18;;;;;;;2.10;2.00;;;21.10;45.90;;;;;;4977061;28;20888;-59
2022/06/14 09:58:16;;;;;;;2.00;1.90;;;21.10;45.90;;;;;;4979565;28;20458;-59
2022/06/14 10:00:41;;;;;;;2.10;2.00;;;21.10;46.00;;;;;;4978330;28;20529;-59
2022/06/14 10:03:30;;;;;;;2.70;2.50;;;21.10;46.00;;;;;;4978601;28;20467;-59
2022/06/14 10:06:31;;;;;;;2.07;1.97;;;21.10;45.80;;;;;;4978798;28;20279;-59
2022/06/14 10:09:28;;;;;;;2.27;2.17;;;21.10;45.90;;;;;;4978374;28;20893;-60
2022/06/14 10:12:31;;;;;;;2.20;2.00;;;21.10;45.90;;;;;;4979624;28;20447;-59
2022/06/14 10:15:12;;;;;;;2.50;2.40;;;21.10;45.90;;;;;;4980077;28;20967;-59
2022/06/14 10:18:01;;;;;;;2.40;2.30;;;21.10;46.00;;;;;;4977118;28;20464;-59
2022/06/14 10:20:55;;;;;;;2.27;2.17;;;21.10;46.00;;;;;;4977234;28;20437;-60
2022/06/14 10:23:29;;;;;;;2.50;2.40;;;21.10;46.00;;;;;;4983248;28;20447;-60
2022/06/14 10:29:19;;;;;;;2.73;2.63;;;21.10;45.90;;;;;;4982554;28;20464;-60
2022/06/14 10:32:03;;;;;;;2.33;2.23;;;21.10;46.00;;;;;;4976529;28;20859;-60
2022/06/14 10:34:49;;;;;;;2.63;2.40;;;21.10;46.00;;;;;;4980709;28;20521;-60
2022/06/14 10:37:41;;;;;;;2.60;2.40;;;21.10;46.00;;;;;;4985743;28;20565;-60
2022/06/14 10:40:35;;;;;;;2.90;2.70;;;21.10;46.00;;;;;;4980909;28;20463;-59
2022/06/14 10:43:37;;;;;;;2.90;2.80;;;21.10;46.00;;;;;;4984593;28;20451;-59
2022/06/14 10:46:22;;;;;;;3.07;2.87;;;21.10;46.00;;;;;;4992560;28;20486;-60
2022/06/14 10:49:25;;;;;;;2.80;2.70;;;21.10;46.00;;;;;;4984597;28;20453;-60
2022/06/14 10:52:25;;;;;;;2.47;2.37;;;21.10;46.00;;;;;;4979034;28;20433;-59
2022/06/14 10:55:21;;;;;;;2.97;2.77;;;21.10;46.00;;;;;;4968198;28;20470;-60
2022/06/14 10:58:16;;;;;;;2.50;2.40;;;21.10;46.00;;;;;;4981062;28;20465;-60
2022/06/14 11:00:51;;;;;;;2.77;2.67;;;21.10;46.00;;;;;;4973331;28;20759;-60
2022/06/14 11:03:16;;;;;;;3.70;3.50;;;21.10;46.00;;;;;;4978363;28;20473;-59
2022/06/14 11:06:06;;;;;;;3.03;2.83;;;21.10;46.10;;;;;;4980479;28;20545;-60
2022/06/14 11:09:00;;;;;;;2.70;2.60;;;21.10;46.00;;;;;;4976583;28;20738;-60
2022/06/14 11:11:53;;;;;;;3.73;3.53;;;21.10;46.00;;;;;;4980271;28;20444;-60
2022/06/14 11:14:19;;;;;;;3.23;3.03;;;21.10;46.00;;;;;;4981822;28;20454;-60
2022/06/14 11:17:07;;;;;;;3.30;3.10;;;21.10;46.10;;;;;;4977113;28;20485;-59
2022/06/14 11:19:44;;;;;;;3.40;3.23;;;21.10;46.00;;;;;;4977600;28;20324;-60
2022/06/14 11:22:24;;;;;;;2.63;2.53;;;21.10;46.10;;;;;;4980252;28;20454;-60
2022/06/14 11:25:27;;;;;;;2.90;2.80;;;21.10;46.00;;;;;;4972380;28;20460;-61
2022/06/14 11:28:08;;;;;;;3.60;3.40;;;21.10;46.00;;;;;;4977281;28;20469;-62
2022/06/14 11:30:55;;;;;;;3.33;3.13;;;21.10;46.00;;;;;;4982814;28;20420;-62
2022/06/14 11:33:36;;;;;;;3.80;3.60;;;21.10;46.00;;;;;;4975472;28;20466;-63
2022/06/14 11:36:22;;;;;;;3.70;3.43;;;21.10;46.00;;;;;;4980819;28;20489;-61
2022/06/14 11:39:10;;;;;;;3.63;3.43;;;21.10;46.00;;;;;;4982764;28;20455;-61
2022/06/14 11:41:42;;;;;;;3.23;3.03;;;21.10;46.00;;;;;;4971006;28;20433;-61
2022/06/14 11:44:26;;;;;;;3.47;3.27;;;21.10;46.00;;;;;;4981677;28;20451;-61
2022/06/14 11:47:11;;;;;;;3.93;3.73;;;21.10;46.00;;;;;;4981109;28;20455;-63
2022/06/14 11:49:56;;;;;;;3.40;3.30;;;21.10;46.00;;;;;;4983393;28;20458;-61
2022/06/14 11:53:05;;;;;;;4.30;4.00;;;21.10;46.00;;;;;;4983339;28;20478;-61
2022/06/14 11:55:47;;;;;;;4.63;4.07;;;21.10;45.90;;;;;;4984008;28;20465;-61
2022/06/14 11:58:33;;;;;;;4.20;4.00;;;21.10;45.90;;;;;;4984114;28;20509;-62
2022/06/14 12:01:15;;;;;;;4.40;4.20;;;21.10;45.80;;;;;;4986115;28;20569;-62
2022/06/14 12:04:04;;;;;;;4.30;4.10;;;21.10;45.80;;;;;;4985806;28;20471;-61
2022/06/14 12:06:53;;;;;;;5.10;4.90;;;21.10;45.80;;;;;;4979757;28;20467;-61
2022/06/14 12:09:54;;;;;;;5.17;4.83;;;21.10;45.70;;;;;;4988466;28;21034;-61
2022/06/14 12:13:06;;;;;;;4.90;4.70;;;21.10;45.70;;;;;;4982277;28;20441;-61
2022/06/14 12:15:46;;;;;;;4.63;4.40;;;21.10;45.80;;;;;;4941878;29;20472;-59
2022/06/14 12:18:15;;;;;;;5.13;4.83;;;21.10;45.90;;;;;;4945377;29;20477;-59
2022/06/14 12:21:10;;;;;;;4.93;4.70;;;21.10;45.90;;;;;;4958541;28;20479;-59
2022/06/14 12:23:48;;;;;;;5.53;5.30;;;21.10;45.90;;;;;;4982392;28;20450;-59
2022/06/14 12:26:34;;;;;;;5.10;4.90;;;21.10;45.90;;;;;;4984690;28;20474;-59
2022/06/14 12:29:12;;;;;;;5.07;4.87;;;21.10;45.90;;;;;;4981677;28;20455;-59
2022/06/14 12:32:04;;;;;;;5.00;4.80;;;21.10;46.00;;;;;;4980389;28;20541;-59
2022/06/14 12:34:41;;;;;;;5.37;5.07;;;21.10;46.70;;;;;;4978869;28;20959;-59
2022/06/14 12:37:30;;;;;;;5.73;5.40;;;21.10;46.00;;;;;;4981511;28;20482;-59
2022/06/14 12:40:41;;;;;;;5.47;5.27;;;21.10;46.00;;;;;;4983611;28;20535;-59
2022/06/14 12:43:13;;;;;;;5.00;4.80;;;21.10;46.00;;;;;;4969041;28;20477;-59
2022/06/14 12:45:46;;;;;;;5.50;5.20;;;21.10;46.10;;;;;;4980129;28;20454;-59
2022/06/14 12:48:36;;;;;;;5.80;5.50;;;21.20;46.10;;;;;;4977958;28;20461;-59
2022/06/14 12:51:10;;;;;;;5.30;5.00;;;21.10;46.10;;;;;;4983458;28;20450;-59
2022/06/14 12:54:19;;;;;;;5.37;4.93;;;21.10;46.10;;;;;;4979506;28;20463;-59
2022/06/14 12:56:54;;;;;;;5.70;5.40;;;21.10;46.10;;;;;;4983007;28;20438;-59
2022/06/14 12:59:44;;;;;;;5.70;5.40;;;21.10;46.10;;;;;;4980182;28;20762;-59
2022/06/14 13:02:33;;;;;;;5.40;5.10;;;21.10;46.40;;;;;;4983638;28;20455;-58
2022/06/14 13:05:27;;;;;;;5.40;5.10;;;21.20;46.30;;;;;;4981765;28;20470;-59
2022/06/14 13:08:15;;;;;;;5.87;5.57;;;21.10;46.10;;;;;;4977953;28;20504;-59
2022/06/14 13:10:57;;;;;;;6.47;6.17;;;21.10;46.10;;;;;;4981566;28;20550;-59
2022/06/14 13:13:48;;;;;;;6.40;6.00;;;21.10;46.20;;;;;;4982630;28;20454;-59
2022/06/14 13:17:04;;;;;;;5.40;5.20;;;21.10;46.20;;;;;;4986839;28;20506;-59
2022/06/14 13:19:43;;;;;;;5.90;5.67;;;21.10;46.20;;;;;;4942349;29;20453;-59
2022/06/14 13:22:38;;;;;;;6.40;6.00;;;21.10;46.20;;;;;;4983318;28;20436;-59
2022/06/14 13:25:21;;;;;;;5.90;5.60;;;21.10;46.20;;;;;;4981735;28;20466;-59
2022/06/14 13:28:06;;;;;;;6.27;5.90;;;21.10;46.20;;;;;;4979036;28;20498;-58
2022/06/14 13:30:44;;;;;;;6.30;6.00;;;21.10;46.30;;;;;;4979153;28;20472;-59
2022/06/14 13:34:00;;;;;;;6.73;6.30;;;21.10;46.30;;;;;;4981188;28;20534;-59
2022/06/14 13:37:06;;;;;;;6.27;5.93;;;21.10;46.20;;;;;;4980414;28;20467;-59
2022/06/14 13:40:14;;;;;;;6.73;6.43;;;21.10;46.30;;;;;;4980998;28;20521;-59
2022/06/14 13:43:00;;;;;;;6.90;6.50;;;21.10;46.30;;;;;;4943357;28;20531;-59
2022/06/14 13:45:31;;;;;;;6.73;6.30;;;21.10;47.10;;;;;;4947440;28;20833;-59
2022/06/14 13:48:10;;;;;;;6.60;6.30;;;21.10;46.30;;;;;;4973134;28;20460;-60
2022/06/14 13:50:43;;;;;;;6.77;6.37;;;21.10;46.30;;;;;;4979015;28;20455;-59
2022/06/14 13:53:45;;;;;;;6.80;6.40;;;21.10;46.30;;;;;;4978337;28;20485;-59
2022/06/14 13:56:19;;;;;;;6.57;6.17;;;21.10;46.30;;;;;;4979194;28;20549;-59
2022/06/14 13:59:10;;;;;;;6.33;6.03;;;21.10;46.40;;;;;;4978641;28;20822;-59
2022/06/14 14:01:45;;;;;;;6.47;6.07;;;21.10;46.50;;;;;;4978104;28;20522;-59
2022/06/14 14:04:17;;;;;;;6.20;5.90;;;21.10;46.30;;;;;;4982109;28;20524;-59
2022/06/14 14:07:20;;;;;;;6.60;6.23;;;21.10;46.40;;;;;;4979657;28;20488;-59